Time;durP1;ratioP1;P1;durP2;ratioP2;P2;SDS_P1;SDS_P2;PMS_P1;PMS_P2;Temp;Humidity;BMP_temperature;BMP_pressure;BME280_temperature;BME280_humidity;BME280_pressure;Samples;Min_cycle;Max_cycle;Signal;HPM_P1;HPM_P2
2021/09/17 00:00:36;;;;;;;10.97;8.20;;;;;;;10.05;100.00;96352.09;4974284;28;20520;-82
2021/09/17 00:03:02;;;;;;;12.67;8.20;;;;;;;9.98;100.00;96356.31;4992905;28;20036;-82
2021/09/17 00:05:28;;;;;;;12.53;8.00;;;;;;;10.00;100.00;96355.19;5003948;28;20033;-82
2021/09/17 00:07:54;;;;;;;12.00;9.20;;;;;;;10.05;100.00;96362.59;4980426;28;20362;-82
2021/09/17 00:10:20;;;;;;;11.30;8.43;;;;;;;10.07;100.00;96356.22;4973293;28;20038;-82
2021/09/17 00:12:46;;;;;;;10.33;8.60;;;;;;;10.01;100.00;96356.81;4990334;28;20033;-82
2021/09/17 00:15:13;;;;;;;12.63;8.53;;;;;;;10.02;100.00;96357.66;5002695;28;20080;-83
2021/09/17 00:17:39;;;;;;;13.57;8.53;;;;;;;10.08;100.00;96357.88;4996998;28;20430;-82
2021/09/17 00:20:06;;;;;;;13.50;8.57;;;;;;;10.10;100.00;96355.09;5006500;28;20063;-82
2021/09/17 00:22:32;;;;;;;14.87;9.00;;;;;;;10.14;100.00;96365.13;4981294;28;20029;-84
2021/09/17 00:24:58;;;;;;;11.40;8.63;;;;;;;10.19;100.00;96358.59;4986248;28;20048;-82
2021/09/17 00:27:24;;;;;;;12.83;9.43;;;;;;;10.22;100.00;96359.09;4996158;28;20112;-82
2021/09/17 00:29:50;;;;;;;13.13;9.67;;;;;;;10.25;100.00;96358.81;5003291;28;20037;-82
2021/09/17 00:32:15;;;;;;;12.17;9.47;;;;;;;10.28;100.00;96355.91;4978965;28;20053;-82
2021/09/17 00:34:45;;;;;;;11.63;9.13;;;;;;;10.31;100.00;96357.41;4992999;28;20378;-82
2021/09/17 00:37:11;;;;;;;15.07;9.40;;;;;;;10.35;100.00;96350.84;5001582;28;20037;-83
2021/09/17 00:39:37;;;;;;;12.40;8.90;;;;;;;10.37;100.00;96341.03;4973640;28;20392;-82
2021/09/17 00:42:02;;;;;;;12.80;10.07;;;;;;;10.37;100.00;96351.53;4979959;28;20053;-83
2021/09/17 00:44:29;;;;;;;12.37;9.53;;;;;;;10.37;100.00;96348.91;4989748;28;20026;-82
2021/09/17 00:46:55;;;;;;;14.97;10.33;;;;;;;10.40;100.00;96339.88;4991462;28;20033;-82
2021/09/17 00:49:23;;;;;;;14.60;9.07;;;;;;;10.41;100.00;96337.09;5000407;28;20612;-82
2021/09/17 00:51:49;;;;;;;11.47;9.37;;;;;;;10.48;100.00;96348.63;5000183;28;20033;-82
2021/09/17 00:54:17;;;;;;;14.07;9.33;;;;;;;10.52;100.00;96349.13;4985080;28;20029;-84
2021/09/17 00:56:44;;;;;;;12.80;8.97;;;;;;;10.55;100.00;96354.91;4985333;28;20041;-82
2021/09/17 00:59:10;;;;;;;14.20;9.73;;;;;;;10.53;100.00;96341.13;4991364;28;20033;-82
2021/09/17 01:01:36;;;;;;;14.90;10.37;;;;;;;10.50;100.00;96348.50;4985871;28;20036;-83
2021/09/17 01:04:03;;;;;;;11.90;8.43;;;;;;;10.51;100.00;96340.44;4995252;28;20025;-82
2021/09/17 01:06:29;;;;;;;14.33;8.77;;;;;;;10.53;100.00;96349.00;5009200;28;20041;-82
2021/09/17 01:08:58;;;;;;;12.63;8.47;;;;;;;10.62;100.00;96347.22;4993276;28;20336;-82
2021/09/17 01:11:24;;;;;;;11.90;9.53;;;;;;;10.68;100.00;96337.91;5003737;28;20041;-82
2021/09/17 01:13:50;;;;;;;12.27;9.33;;;;;;;10.65;100.00;96344.28;4995685;28;20030;-82
2021/09/17 01:16:16;;;;;;;14.73;10.20;;;;;;;10.68;100.00;96332.63;5032614;28;20080;-82
2021/09/17 01:18:42;;;;;;;15.07;9.80;;;;;;;10.65;100.00;96338.19;5004719;28;20313;-82
2021/09/17 01:21:08;;;;;;;11.43;7.80;;;;;;;10.72;100.00;96332.16;5003840;28;20080;-82
2021/09/17 01:23:33;;;;;;;12.50;8.70;;;;;;;10.69;100.00;96344.78;4985566;28;20022;-83
2021/09/17 01:25:59;;;;;;;11.87;9.73;;;;;;;10.78;100.00;96338.59;5000962;28;20041;-82
2021/09/17 01:28:28;;;;;;;15.17;8.47;;;;;;;10.78;100.00;96330.69;5002258;28;20037;-82
2021/09/17 01:30:54;;;;;;;12.83;8.57;;;;;;;10.79;100.00;96335.78;4992496;28;20037;-83
2021/09/17 01:33:20;;;;;;;13.47;9.07;;;;;;;10.82;100.00;96329.41;4980184;28;20037;-82
2021/09/17 01:35:46;;;;;;;13.90;8.67;;;;;;;10.87;100.00;96327.13;5016430;28;20041;-82
2021/09/17 01:38:11;;;;;;;15.60;9.27;;;;;;;10.75;100.00;96323.13;5016805;28;20088;-83
2021/09/17 01:40:37;;;;;;;12.97;9.50;;;;;;;10.60;100.00;96320.28;4983419;28;20026;-82
2021/09/17 01:43:03;;;;;;;11.83;8.50;;;;;;;10.54;100.00;96324.34;4993301;28;20040;-83
2021/09/17 01:45:29;;;;;;;13.27;9.27;;;;;;;10.49;100.00;96328.41;4997110;28;20062;-82
2021/09/17 01:47:55;;;;;;;14.80;9.07;;;;;;;10.63;100.00;96309.44;4982005;28;20030;-82
2021/09/17 01:50:21;;;;;;;15.90;9.23;;;;;;;10.61;100.00;96314.84;4993214;28;20036;-82
2021/09/17 01:52:46;;;;;;;12.30;8.80;;;;;;;10.67;100.00;96320.47;4992881;28;20040;-82
2021/09/17 01:55:12;;;;;;;13.17;8.57;;;;;;;10.72;100.00;96315.53;4999633;28;20399;-83
2021/09/17 01:57:38;;;;;;;13.23;8.57;;;;;;;10.81;100.00;96306.72;4981994;28;20051;-83
2021/09/17 02:00:06;;;;;;;15.13;9.37;;;;;;;10.82;100.00;96313.63;4978675;28;20038;-82
2021/09/17 02:02:34;;;;;;;11.47;9.23;;;;;;;10.88;100.00;96302.47;4995696;28;20022;-82
2021/09/17 02:05:00;;;;;;;13.37;8.23;;;;;;;10.95;100.00;96298.19;5014194;28;20068;-83
2021/09/17 02:07:25;;;;;;;10.57;7.97;;;;;;;10.96;100.00;96299.84;4984564;28;20030;-83
2021/09/17 02:09:51;;;;;;;10.67;8.40;;;;;;;10.99;100.00;96301.34;4980502;28;20112;-83
2021/09/17 02:12:17;;;;;;;11.03;7.47;;;;;;;11.01;100.00;96304.66;4994219;28;20033;-82
2021/09/17 02:14:42;;;;;;;12.77;8.47;;;;;;;11.00;100.00;96301.19;5003053;28;20511;-82
2021/09/17 02:17:08;;;;;;;11.03;8.53;;;;;;;10.95;100.00;96292.94;5011822;28;20119;-82
2021/09/17 02:19:34;;;;;;;11.17;8.37;;;;;;;10.95;100.00;96287.69;5006127;28;20033;-82
2021/09/17 02:22:00;;;;;;;13.40;8.47;;;;;;;10.99;100.00;96289.00;5001530;28;20026;-83
2021/09/17 02:24:26;;;;;;;11.40;7.70;;;;;;;11.01;100.00;96292.31;5002443;28;20057;-83
2021/09/17 02:26:52;;;;;;;11.67;8.57;;;;;;;11.04;100.00;96294.63;5012048;28;20025;-83
2021/09/17 02:29:18;;;;;;;11.23;9.13;;;;;;;11.06;100.00;96297.06;5000607;28;20048;-83
2021/09/17 02:31:44;;;;;;;12.27;9.43;;;;;;;11.02;100.00;96288.69;4995277;28;20338;-82
2021/09/17 02:34:10;;;;;;;12.23;8.97;;;;;;;11.07;100.00;96286.41;4988988;28;20064;-82
2021/09/17 02:36:36;;;;;;;13.27;9.70;;;;;;;11.04;100.00;96286.72;4996842;28;20129;-82
2021/09/17 02:39:02;;;;;;;13.17;9.50;;;;;;;11.16;100.00;96281.97;5002778;28;20548;-83
2021/09/17 02:41:28;;;;;;;12.03;9.73;;;;;;;11.07;100.00;96283.78;4990545;28;20045;-83
2021/09/17 02:43:54;;;;;;;11.00;8.00;;;;;;;11.17;100.00;96285.44;4995507;28;20073;-83
2021/09/17 02:46:19;;;;;;;11.97;9.33;;;;;;;11.02;100.00;96283.41;5004642;28;20033;-82
2021/09/17 02:48:45;;;;;;;12.40;8.67;;;;;;;11.02;100.00;96287.88;4992470;28;20038;-82
2021/09/17 02:51:12;;;;;;;14.27;9.37;;;;;;;10.94;100.00;96285.22;4996066;28;20336;-82
2021/09/17 02:53:38;;;;;;;14.10;8.87;;;;;;;10.88;100.00;96285.84;5018942;28;20724;-82
2021/09/17 02:56:04;;;;;;;11.90;9.00;;;;;;;10.89;100.00;96277.78;4996954;28;20033;-82
2021/09/17 02:58:30;;;;;;;15.60;10.70;;;;;;;10.95;100.00;96282.41;5000767;28;20463;-83
2021/09/17 03:00:55;;;;;;;13.43;9.70;;;;;;;10.99;100.00;96278.47;4987653;28;20025;-82
2021/09/17 03:03:21;;;;;;;13.83;10.17;;;;;;;10.99;100.00;96269.75;4989795;28;20526;-82
2021/09/17 03:05:47;;;;;;;12.80;9.50;;;;;;;11.03;100.00;96265.81;4992515;28;20029;-82
2021/09/17 03:08:13;;;;;;;13.73;9.43;;;;;;;11.13;100.00;96271.75;5008174;28;20044;-82
2021/09/17 03:10:39;;;;;;;11.03;8.63;;;;;;;11.16;100.00;96273.25;5005081;28;20034;-84
2021/09/17 03:13:05;;;;;;;13.13;9.10;;;;;;;11.20;100.00;96269.31;5000770;28;20683;-82
2021/09/17 03:15:30;;;;;;;14.10;9.43;;;;;;;11.12;100.00;96277.19;4997730;28;20021;-82
2021/09/17 03:17:56;;;;;;;12.60;8.87;;;;;;;11.08;100.00;96264.34;5007672;28;20068;-82
2021/09/17 03:20:22;;;;;;;12.83;9.80;;;;;;;11.12;100.00;96272.75;4989845;28;20354;-82
2021/09/17 03:22:48;;;;;;;11.50;8.27;;;;;;;11.08;100.00;96267.00;4999497;28;20443;-82
2021/09/17 03:25:15;;;;;;;13.07;9.13;;;;;;;11.10;100.00;96264.22;4991873;28;20044;-82
2021/09/17 03:27:41;;;;;;;14.97;9.80;;;;;;;11.12;100.00;96258.78;4999476;28;20048;-83
2021/09/17 03:30:08;;;;;;;11.63;8.97;;;;;;;11.08;100.00;96261.72;5002574;28;20117;-82
2021/09/17 03:32:33;;;;;;;11.87;9.33;;;;;;;11.13;100.00;96263.03;4981131;28;20052;-83
2021/09/17 03:34:59;;;;;;;10.87;8.67;;;;;;;11.13;100.00;96263.88;5005854;28;20468;-82
2021/09/17 03:37:25;;;;;;;12.77;9.63;;;;;;;11.15;100.00;96263.72;5008127;28;20120;-82
2021/09/17 03:39:50;;;;;;;12.43;9.30;;;;;;;11.18;100.00;96261.59;4996779;28;20451;-82
2021/09/17 03:42:16;;;;;;;12.53;8.70;;;;;;;11.21;100.00;96271.78;4999575;28;20040;-83
2021/09/17 03:44:42;;;;;;;14.13;10.00;;;;;;;11.16;100.00;96278.50;5001482;28;20119;-82
2021/09/17 03:47:08;;;;;;;13.77;9.87;;;;;;;11.19;100.00;96272.94;4991448;28;20041;-83
2021/09/17 03:49:34;;;;;;;12.53;9.93;;;;;;;11.18;100.00;96268.66;5015202;28;20630;-82
2021/09/17 03:52:00;;;;;;;11.47;8.73;;;;;;;11.26;100.00;96266.03;4998909;28;20107;-82
2021/09/17 03:54:27;;;;;;;13.73;9.07;;;;;;;11.30;100.00;96262.06;5007883;28;20029;-82
2021/09/17 03:56:58;;;;;;;12.90;9.70;;;;;;;11.33;100.00;96274.91;5008616;28;20036;-82
2021/09/17 03:59:24;;;;;;;13.27;9.30;;;;;;;11.31;100.00;96264.56;4983496;28;20051;-83
2021/09/17 04:01:50;;;;;;;13.87;9.73;;;;;;;11.27;100.00;96272.97;4993710;28;20029;-82
2021/09/17 04:04:23;;;;;;;11.90;9.13;;;;;;;11.33;100.00;96272.28;5119513;27;20714;-79
2021/09/17 04:06:48;;;;;;;13.47;10.33;;;;;;;11.38;100.00;96267.38;5112563;28;20536;-79
2021/09/17 04:09:14;;;;;;;16.03;11.30;;;;;;;11.44;100.00;96258.00;5104218;28;20431;-79
2021/09/17 04:11:40;;;;;;;14.43;11.27;;;;;;;11.44;100.00;96258.81;5093238;28;20090;-80
2021/09/17 04:14:05;;;;;;;15.10;11.63;;;;;;;11.44;100.00;96256.19;5087121;28;20028;-79
2021/09/17 04:16:31;;;;;;;16.60;12.33;;;;;;;11.51;100.00;96257.16;5089964;28;20036;-79
2021/09/17 04:18:57;;;;;;;18.57;12.60;;;;;;;11.51;100.00;96262.44;5097954;28;20028;-79
2021/09/17 04:21:23;;;;;;;18.20;12.73;;;;;;;11.54;100.00;96261.28;5096667;28;20040;-80
2021/09/17 04:23:48;;;;;;;15.50;11.53;;;;;;;11.56;100.00;96254.03;5096847;28;20024;-79
2021/09/17 04:26:14;;;;;;;18.73;12.70;;;;;;;11.62;100.00;96257.81;5080091;28;20120;-79
2021/09/17 04:28:40;;;;;;;18.50;12.43;;;;;;;11.56;100.00;96259.31;5089425;28;20020;-79
2021/09/17 04:31:05;;;;;;;21.47;13.07;;;;;;;11.61;100.00;96256.19;5091648;28;20052;-78
2021/09/17 04:33:31;;;;;;;19.00;12.77;;;;;;;11.59;100.00;96260.78;5078486;28;20028;-79
2021/09/17 04:35:57;;;;;;;17.90;13.57;;;;;;;11.57;100.00;96267.06;5094034;28;20078;-78
2021/09/17 04:38:24;;;;;;;16.37;12.67;;;;;;;11.60;100.00;96267.69;5075975;28;20035;-79
2021/09/17 04:40:49;;;;;;;15.40;11.40;;;;;;;11.62;100.00;96265.72;5077258;28;20055;-79
2021/09/17 04:43:15;;;;;;;17.60;13.37;;;;;;;11.61;100.00;96275.44;5093184;28;20594;-79
2021/09/17 04:45:41;;;;;;;18.47;13.23;;;;;;;11.62;100.00;96269.19;5092463;28;20048;-79
2021/09/17 04:48:15;;;;;;;20.77;14.53;;;;;;;11.64;100.00;96267.22;5111060;28;20024;-78
2021/09/17 04:50:41;;;;;;;18.80;14.00;;;;;;;11.68;100.00;96272.97;5093967;28;20040;-79
2021/09/17 04:53:07;;;;;;;21.23;15.67;;;;;;;11.63;100.00;96270.00;5071877;28;20024;-79
2021/09/17 04:55:33;;;;;;;22.53;15.03;;;;;;;11.60;100.00;96280.88;5093168;28;20036;-81
2021/09/17 04:58:07;;;;;;;24.60;15.27;;;;;;;11.61;100.00;96282.53;5092071;28;20039;-79
2021/09/17 05:00:34;;;;;;;30.13;16.03;;;;;;;11.60;100.00;96286.94;5093456;28;20032;-79
2021/09/17 05:03:00;;;;;;;21.17;15.40;;;;;;;11.60;100.00;96271.16;5087544;28;20024;-79
2021/09/17 05:05:27;;;;;;;21.93;16.10;;;;;;;11.67;100.00;96281.84;5086503;28;20094;-79
2021/09/17 05:07:53;;;;;;;22.37;16.10;;;;;;;11.71;100.00;96286.66;5097302;28;20038;-79
2021/09/17 05:10:19;;;;;;;21.67;14.67;;;;;;;11.71;100.00;96277.91;5099514;28;20036;-79
2021/09/17 05:12:45;;;;;;;20.03;14.47;;;;;;;11.71;100.00;96278.75;5096343;28;20024;-79
2021/09/17 05:15:12;;;;;;;20.00;14.17;;;;;;;11.67;100.00;96290.59;5071575;28;20085;-79
2021/09/17 05:17:37;;;;;;;17.97;14.17;;;;;;;11.75;100.00;96287.13;5074660;28;20028;-79
2021/09/17 05:20:04;;;;;;;22.53;15.93;;;;;;;11.74;100.00;96281.03;5078756;28;20032;-79
2021/09/17 05:22:29;;;;;;;21.80;16.00;;;;;;;11.77;100.00;96287.81;5089498;28;20485;-78
2021/09/17 05:24:56;;;;;;;27.53;17.20;;;;;;;11.78;100.00;96290.25;5081461;28;20078;-79
2021/09/17 05:27:21;;;;;;;24.00;15.87;;;;;;;11.77;100.00;96288.63;5067138;28;20029;-79
2021/09/17 05:29:47;;;;;;;23.87;15.57;;;;;;;11.81;100.00;96294.38;5084205;28;20660;-79
2021/09/17 05:32:13;;;;;;;23.50;15.90;;;;;;;11.82;100.00;96290.75;5084734;28;20054;-79
2021/09/17 05:34:38;;;;;;;24.00;15.83;;;;;;;11.84;100.00;96288.81;5065680;28;20669;-79
2021/09/17 05:37:06;;;;;;;21.83;16.13;;;;;;;11.82;100.00;96285.47;5076224;28;20027;-79
2021/09/17 05:39:33;;;;;;;27.60;16.43;;;;;;;11.89;100.00;96286.50;5077033;28;20035;-79
2021/09/17 05:41:58;;;;;;;21.90;14.97;;;;;;;11.94;100.00;96286.00;5079511;28;20056;-79
2021/09/17 05:44:24;;;;;;;23.67;16.73;;;;;;;11.96;100.00;96282.19;5082023;28;20067;-79
2021/09/17 05:46:50;;;;;;;26.20;16.83;;;;;;;12.00;100.00;96287.97;5060980;28;20358;-79
2021/09/17 05:49:16;;;;;;;25.47;16.40;;;;;;;11.98;100.00;96296.03;5077030;28;20036;-79
2021/09/17 05:51:41;;;;;;;21.80;15.70;;;;;;;12.07;100.00;96296.03;5086326;28;20043;-79
2021/09/17 05:54:07;;;;;;;22.33;16.37;;;;;;;12.07;100.00;96296.84;5081756;28;20076;-79
2021/09/17 05:56:33;;;;;;;20.33;15.90;;;;;;;12.01;100.00;96295.72;5088139;28;20025;-79
2021/09/17 05:58:58;;;;;;;21.77;16.20;;;;;;;12.09;100.00;96286.16;5081831;28;20119;-79
2021/09/17 06:01:24;;;;;;;23.87;17.00;;;;;;;12.05;100.00;96290.13;5079369;28;20032;-79
2021/09/17 06:03:50;;;;;;;27.27;17.03;;;;;;;12.09;100.00;96288.78;5083551;28;20028;-79
2021/09/17 06:06:18;;;;;;;23.00;16.80;;;;;;;12.16;100.00;96287.13;5074434;28;20033;-79
2021/09/17 06:08:43;;;;;;;23.20;16.50;;;;;;;12.21;100.00;96284.81;5078224;28;20029;-79
2021/09/17 06:11:09;;;;;;;22.93;15.97;;;;;;;12.24;100.00;96281.84;5096817;28;20029;-79
2021/09/17 06:13:35;;;;;;;20.87;15.83;;;;;;;12.26;100.00;96285.13;5068463;28;20028;-79
2021/09/17 06:16:00;;;;;;;24.87;16.50;;;;;;;12.31;100.00;96282.81;5080715;28;20031;-79
2021/09/17 06:18:26;;;;;;;21.60;15.57;;;;;;;12.36;100.00;96282.28;5075353;28;20127;-78
2021/09/17 06:20:52;;;;;;;21.83;15.33;;;;;;;12.38;100.00;96283.78;5058871;28;20063;-78
2021/09/17 06:23:17;;;;;;;20.97;15.87;;;;;;;12.41;100.00;96280.00;5059009;28;20129;-79
2021/09/17 06:25:43;;;;;;;23.07;15.17;;;;;;;12.48;100.00;96276.50;5069127;28;20028;-79
2021/09/17 06:28:09;;;;;;;19.83;15.23;;;;;;;12.53;100.00;96275.97;5080024;28;20039;-79
2021/09/17 06:30:34;;;;;;;20.03;15.20;;;;;;;12.59;100.00;96279.75;5083476;28;20172;-79
2021/09/17 06:33:00;;;;;;;23.40;16.50;;;;;;;12.54;100.00;96274.16;5058637;28;20074;-79
2021/09/17 06:35:27;;;;;;;21.27;15.67;;;;;;;12.67;100.00;96277.06;5073775;28;20452;-79
2021/09/17 06:37:54;;;;;;;19.30;15.50;;;;;;;12.75;100.00;96282.34;5075311;28;20561;-79
2021/09/17 06:40:23;;;;;;;21.23;15.60;;;;;;;12.76;100.00;96283.16;5055419;28;20039;-79
2021/09/17 06:42:49;;;;;;;21.80;15.97;;;;;;;12.90;100.00;96285.88;5076996;28;20047;-79
2021/09/17 06:45:15;;;;;;;23.97;16.20;;;;;;;12.93;100.00;96290.00;5077373;28;20116;-80
2021/09/17 06:47:42;;;;;;;19.53;14.87;;;;;;;12.92;100.00;96291.81;5084510;28;20035;-79
2021/09/17 06:50:09;;;;;;;21.90;15.20;;;;;;;13.02;100.00;96285.50;5081342;28;20032;-80
2021/09/17 06:52:34;;;;;;;21.70;14.73;;;;;;;12.93;100.00;96290.81;5066284;28;20559;-79
2021/09/17 06:55:00;;;;;;;19.77;14.05;;;;;;;13.07;100.00;96291.91;5076009;28;20028;-79
2021/09/17 06:57:26;;;;;;;21.35;15.65;;;;;;;13.02;100.00;96290.78;5079919;28;20025;-79
2021/09/17 06:59:51;;;;;;;20.40;14.53;;;;;;;13.23;100.00;96285.72;5079415;28;20024;-80
2021/09/17 07:02:17;;;;;;;19.20;13.75;;;;;;;13.22;100.00;96289.34;5077614;28;20044;-79
2021/09/17 07:04:44;;;;;;;18.00;15.20;;;;;;;13.15;100.00;96288.41;5077237;28;20100;-79
2021/09/17 07:07:10;;;;;;;21.90;14.98;;;;;;;13.14;100.00;96286.75;5081895;28;20028;-79
2021/09/17 07:09:36;;;;;;;20.47;14.77;;;;;;;13.32;100.00;96287.34;5073236;28;20032;-80
2021/09/17 07:12:02;;;;;;;18.47;14.87;;;;;;;13.49;100.00;96285.41;5079172;28;20033;-79
2021/09/17 07:14:27;;;;;;;20.15;15.55;;;;;;;13.55;100.00;96290.00;5054125;28;20031;-76
2021/09/17 07:16:53;;;;;;;19.67;14.63;;;;;;;13.52;100.00;96290.34;5095048;28;20185;-76
2021/09/17 07:19:19;;;;;;;19.85;14.57;;;;;;;13.72;100.00;96295.97;5070914;28;20024;-77
2021/09/17 07:21:44;;;;;;;17.98;13.65;;;;;;;13.82;100.00;96293.09;5080518;28;20028;-77
2021/09/17 07:24:10;;;;;;;20.20;14.88;;;;;;;13.85;100.00;96290.91;5081184;28;20414;-76
2021/09/17 07:26:36;;;;;;;18.83;14.10;;;;;;;13.81;100.00;96296.72;5058294;28;20051;-76
2021/09/17 07:29:01;;;;;;;23.52;14.00;;;;;;;13.80;100.00;96303.03;5081873;28;20494;-76
2021/09/17 07:31:27;;;;;;;19.00;14.57;;;;;;;13.74;100.00;96296.59;5065090;28;20423;-76
2021/09/17 07:33:53;;;;;;;21.90;17.45;;;;;;;13.83;100.00;96294.72;5074225;28;20629;-77
2021/09/17 07:36:18;;;;;;;21.63;16.75;;;;;;;14.00;100.00;96293.59;5059121;28;20032;-77
2021/09/17 07:38:44;;;;;;;21.40;15.05;;;;;;;14.02;100.00;96288.13;5075902;28;20032;-76
2021/09/17 07:41:10;;;;;;;23.55;15.27;;;;;;;14.09;100.00;96295.16;5080744;28;20024;-77
2021/09/17 07:43:36;;;;;;;19.73;14.32;;;;;;;14.05;100.00;96288.59;5079674;28;20537;-78
2021/09/17 07:46:02;;;;;;;18.67;14.98;;;;;;;14.05;100.00;96299.19;5066622;28;20186;-78
2021/09/17 07:48:27;;;;;;;17.50;14.52;;;;;;;14.10;100.00;96293.34;5059061;28;20112;-78
2021/09/17 07:50:53;;;;;;;32.15;26.88;;;;;;;14.26;100.00;96298.47;5081208;28;20024;-77
2021/09/17 07:53:19;;;;;;;17.33;14.50;;;;;;;14.26;100.00;96295.00;5068735;28;20017;-78
2021/09/17 07:55:44;;;;;;;17.77;13.75;;;;;;;14.41;100.00;96295.00;5081159;28;20055;-78
2021/09/17 07:58:11;;;;;;;19.02;13.55;;;;;;;14.58;100.00;96296.50;5087161;28;20027;-77
2021/09/17 08:00:37;;;;;;;16.10;12.40;;;;;;;14.45;100.00;96294.47;5080114;28;20032;-78
2021/09/17 08:03:04;;;;;;;18.08;12.88;;;;;;;14.51;100.00;96295.59;5080473;28;20103;-78
2021/09/17 08:05:30;;;;;;;17.13;13.40;;;;;;;14.65;100.00;96291.31;5082304;28;20032;-78
2021/09/17 08:07:56;;;;;;;18.15;12.45;;;;;;;14.54;100.00;96295.25;5055296;28;20374;-78
2021/09/17 08:10:21;;;;;;;16.30;12.90;;;;;;;14.69;100.00;96287.28;5062756;28;20036;-77
2021/09/17 08:12:47;;;;;;;17.60;12.90;;;;;;;14.91;100.00;96288.19;5074729;28;20024;-77
2021/09/17 08:15:13;;;;;;;15.98;12.80;;;;;;;14.90;100.00;96286.56;5060262;28;20121;-78
2021/09/17 08:17:39;;;;;;;16.15;12.82;;;;;;;15.15;100.00;96290.50;5063362;28;20035;-78
2021/09/17 08:20:07;;;;;;;18.83;13.27;;;;;;;15.39;98.35;96284.06;5079852;28;20036;-77
2021/09/17 08:22:33;;;;;;;16.02;11.68;;;;;;;15.60;96.31;96291.22;5075396;28;20017;-78
2021/09/17 08:24:59;;;;;;;17.50;11.48;;;;;;;15.71;93.45;96281.94;5052426;28;20382;-78
2021/09/17 08:27:24;;;;;;;16.10;11.38;;;;;;;15.84;93.17;96291.88;5075762;28;20076;-77
2021/09/17 08:29:50;;;;;;;15.98;11.80;;;;;;;16.20;92.67;96286.44;5079743;28;20070;-78
2021/09/17 08:32:16;;;;;;;15.35;11.82;;;;;;;16.10;93.32;96286.78;5075643;28;20412;-78
2021/09/17 08:34:43;;;;;;;14.95;11.88;;;;;;;16.12;92.34;96287.38;5073486;28;20442;-78
2021/09/17 08:37:09;;;;;;;17.98;12.73;;;;;;;16.40;92.58;96292.72;5070384;28;20032;-77
2021/09/17 08:39:38;;;;;;;16.35;12.60;;;;;;;16.22;92.39;96284.41;5076884;28;20073;-77
2021/09/17 08:42:08;;;;;;;16.35;12.00;;;;;;;16.48;90.65;96289.06;5075598;28;20549;-77
2021/09/17 08:44:36;;;;;;;14.50;12.45;;;;;;;15.99;89.14;96295.25;5078343;28;20072;-78
2021/09/17 08:47:03;;;;;;;20.35;12.90;;;;;;;16.36;89.31;96293.28;5058785;28;20013;-78
2021/09/17 08:49:29;;;;;;;17.63;12.95;;;;;;;16.33;90.96;96296.31;5081213;28;20082;-78
2021/09/17 08:51:55;;;;;;;15.48;12.68;;;;;;;16.57;87.96;96289.75;5087546;28;20676;-78
2021/09/17 08:54:22;;;;;;;17.50;14.15;;;;;;;16.38;90.13;96293.91;5074010;28;20032;-79
2021/09/17 08:56:48;;;;;;;17.35;13.25;;;;;;;16.46;89.80;96289.28;5078068;28;20109;-78
2021/09/17 08:59:13;;;;;;;16.63;12.98;;;;;;;16.90;88.11;96276.66;5083678;28;20028;-77
2021/09/17 09:01:39;;;;;;;15.43;12.52;;;;;;;16.92;87.44;96282.59;5091020;28;20393;-77
2021/09/17 09:04:08;;;;;;;16.25;11.95;;;;;;;16.53;86.80;96291.94;5079580;28;20385;-77
2021/09/17 09:06:35;;;;;;;16.92;12.05;;;;;;;16.92;82.38;96285.25;5077503;28;20611;-77
2021/09/17 09:09:01;;;;;;;16.38;11.98;;;;;;;17.15;83.36;96291.06;5086584;28;20036;-77
2021/09/17 09:11:30;;;;;;;18.25;12.32;;;;;;;17.43;82.17;96282.16;5086891;28;20423;-78
2021/09/17 09:14:07;;;;;;;15.18;11.52;;;;;;;17.80;78.82;96278.16;5074382;28;20057;-77
2021/09/17 09:16:39;;;;;;;14.05;10.35;;;;;;;18.70;72.98;96277.69;5073523;28;20044;-77
2021/09/17 09:19:24;;;;;;;12.38;8.95;;;;;;;17.77;76.04;96288.38;5072077;28;20028;-77
2021/09/17 09:21:53;;;;;;;13.70;10.43;;;;;;;18.16;76.58;96284.94;5078166;28;20043;-77
2021/09/17 09:24:21;;;;;;;11.63;9.85;;;;;;;18.89;73.86;96276.84;5085158;28;20017;-77
2021/09/17 09:27:15;;;;;;;14.35;9.93;;;;;;;18.52;74.46;96276.50;5091884;28;20036;-78
2021/09/17 09:29:43;;;;;;;10.43;8.38;;;;;;;19.16;70.63;96277.53;5083143;28;20028;-79
2021/09/17 09:32:24;;;;;;;12.07;8.25;;;;;;;20.27;64.83;96270.88;5093102;28;20437;-79
2021/09/17 09:35:00;;;;;;;10.25;7.75;;;;;;;19.45;65.56;96280.66;5088378;28;20035;-78
2021/09/17 09:37:29;;;;;;;10.93;8.23;;;;;;;20.03;64.22;96261.84;5066977;28;20117;-77
2021/09/17 09:39:59;;;;;;;11.85;9.38;;;;;;;18.08;70.01;96275.31;5087224;28;20051;-78
2021/09/17 09:42:45;;;;;;;14.52;9.35;;;;;;;17.90;72.47;96269.78;5066664;28;20069;-78
2021/09/17 09:45:22;;;;;;;11.82;7.70;;;;;;;18.85;67.58;96270.28;5091400;28;20067;-78
2021/09/17 09:47:52;;;;;;;6.00;3.75;;;;;;;20.20;59.01;96259.44;5083677;28;20165;-78
2021/09/17 09:50:26;;;;;;;3.53;1.50;;;;;;;21.30;51.31;96256.00;5084243;28;20166;-82
2021/09/17 09:52:54;;;;;;;5.65;2.30;;;;;;;21.39;51.65;96258.19;5093945;28;20024;-78
2021/09/17 09:55:20;;;;;;;3.97;1.60;;;;;;;21.41;50.83;96252.59;5085701;28;20051;-79
2021/09/17 09:57:46;;;;;;;3.05;1.50;;;;;;;20.73;53.16;96250.94;5086703;28;20067;-79
2021/09/17 10:00:14;;;;;;;4.15;1.92;;;;;;;20.93;53.21;96240.03;5068916;28;20028;-78
2021/09/17 10:02:42;;;;;;;7.35;3.42;;;;;;;20.36;58.08;96253.53;5083187;28;20032;-80
2021/09/17 10:05:11;;;;;;;4.50;2.72;;;;;;;19.99;58.18;96253.47;5085641;28;20554;-79
2021/09/17 10:07:37;;;;;;;7.00;2.90;;;;;;;19.96;59.42;96240.53;5062913;28;20063;-79
2021/09/17 10:10:06;;;;;;;5.68;3.30;;;;;;;19.31;61.50;96242.59;5086256;28;20505;-79
2021/09/17 10:12:32;;;;;;;7.35;3.92;;;;;;;19.65;62.42;96245.91;5079422;28;20020;-79
2021/09/17 10:14:59;;;;;;;7.82;4.63;;;;;;;18.94;64.12;96246.88;5072653;28;20054;-79
2021/09/17 10:17:31;;;;;;;9.18;4.65;;;;;;;19.30;62.74;96243.63;5090849;28;20055;-78
2021/09/17 10:19:59;;;;;;;4.57;2.92;;;;;;;19.94;60.45;96242.59;5087890;28;20043;-79
2021/09/17 10:22:26;;;;;;;5.82;3.38;;;;;;;19.70;58.90;96241.56;5064625;28;20033;-78
2021/09/17 10:25:13;;;;;;;4.75;3.00;;;;;;;19.03;63.75;96240.28;5063662;28;20051;-79
2021/09/17 10:28:04;;;;;;;5.45;3.22;;;;;;;19.71;63.33;96237.03;5066939;28;20431;-79
2021/09/17 10:30:33;;;;;;;7.88;3.80;;;;;;;19.63;61.12;96239.94;5062683;28;20063;-77
2021/09/17 10:32:58;;;;;;;5.70;3.58;;;;;;;19.65;60.08;96240.56;5081579;28;20016;-78
2021/09/17 10:35:45;;;;;;;5.07;3.50;;;;;;;19.65;61.93;96240.56;5077721;28;20042;-77
2021/09/17 10:38:16;;;;;;;5.32;2.90;;;;;;;19.03;63.50;96238.44;5085829;28;20035;-78
2021/09/17 10:40:44;;;;;;;9.43;3.65;;;;;;;17.95;67.91;96242.56;5084735;28;20062;-78
2021/09/17 10:43:09;;;;;;;5.80;3.15;;;;;;;18.59;67.36;96240.00;5091115;28;20019;-78
2021/09/17 10:45:53;;;;;;;4.88;3.42;;;;;;;18.54;67.40;96242.50;5089959;28;20040;-78
2021/09/17 10:48:44;;;;;;;6.57;3.13;;;;;;;18.59;68.10;96239.19;5079469;28;20104;-79
2021/09/17 10:51:26;;;;;;;4.93;2.80;;;;;;;18.54;66.67;96234.50;5056149;28;20132;-78
2021/09/17 10:53:57;;;;;;;12.68;9.20;;;;;;;18.69;66.53;96230.75;5078755;28;20024;-76
2021/09/17 10:56:23;;;;;;;5.18;2.97;;;;;;;18.80;65.06;96225.63;5084305;28;20028;-78
2021/09/17 10:59:20;;;;;;;3.72;2.67;;;;;;;18.67;66.84;96230.16;5087714;28;20021;-79
2021/09/17 11:02:04;;;;;;;4.50;2.25;;;;;;;18.71;68.17;96236.69;5080096;28;20046;-78
2021/09/17 11:04:34;;;;;;;4.07;1.98;;;;;;;18.91;66.67;96225.97;5077518;28;20051;-78
2021/09/17 11:07:21;;;;;;;2.85;1.60;;;;;;;19.21;65.38;96226.25;5080715;28;20100;-79
2021/09/17 11:09:55;;;;;;;4.18;1.83;;;;;;;18.87;65.71;96230.91;5073045;28;20032;-78
2021/09/17 11:12:26;;;;;;;4.85;1.80;;;;;;;18.97;64.99;96231.28;5078300;28;20051;-79
2021/09/17 11:15:11;;;;;;;3.63;1.77;;;;;;;19.15;64.23;96222.59;5064986;28;20036;-79
2021/09/17 11:17:43;;;;;;;4.45;1.98;;;;;;;19.43;62.32;96221.41;5079983;28;20039;-79